createdAt,value
2023-02-06T00:01:49.594Z,68.40
2023-02-06T00:04:18.394Z,71.38
2023-02-06T00:06:47.270Z,62.65
2023-02-06T00:09:16.030Z,73.70
2023-02-06T00:11:44.440Z,67.93
2023-02-06T00:14:12.708Z,67.55
2023-02-06T00:16:42.763Z,67.28
2023-02-06T00:19:11.466Z,69.50
2023-02-06T00:21:40.065Z,68.88
2023-02-06T00:24:08.867Z,72.13
2023-02-06T00:26:37.613Z,74.35
2023-02-06T00:29:06.076Z,81.57
2023-02-06T00:31:34.718Z,86.18
2023-02-06T00:34:04.939Z,82.32
2023-02-06T00:36:34.951Z,76.43
2023-02-06T00:39:03.693Z,79.20
2023-02-06T00:41:32.242Z,73.80
2023-02-06T00:44:00.756Z,79.82
2023-02-06T00:46:29.348Z,80.88
2023-02-06T00:48:57.902Z,77.15
2023-02-06T00:51:28.136Z,75.47
2023-02-06T00:53:56.703Z,71.30
2023-02-06T00:56:25.274Z,61.33
2023-02-06T00:58:53.689Z,62.50
2023-02-06T01:01:22.453Z,72.15
2023-02-06T01:03:51.207Z,70.63
2023-02-06T01:06:20.222Z,65.53
2023-02-06T01:08:50.259Z,71.55
2023-02-06T01:11:21.924Z,64.55
2023-02-06T01:13:51.125Z,71.78
2023-02-06T01:16:21.875Z,69.68
2023-02-06T01:18:50.860Z,70.32
2023-02-06T01:21:22.300Z,64.45
2023-02-06T01:23:54.400Z,59.33
2023-02-06T01:26:25.951Z,56.05
2023-02-06T01:28:55.758Z,55.38
2023-02-06T01:31:26.241Z,55.60
2023-02-06T01:33:56.500Z,51.90
2023-02-06T01:36:25.733Z,50.78
2023-02-06T01:38:55.708Z,50.03
2023-02-06T01:41:24.942Z,43.92
2023-02-06T01:44:13.399Z,49.38
2023-02-06T01:46:43.252Z,47.70
2023-02-06T01:49:17.853Z,48.90
2023-02-06T01:51:47.608Z,50.90
2023-02-06T01:54:17.978Z,51.15
2023-02-06T01:56:51.187Z,50.83
2023-02-06T01:59:21.199Z,54.00
2023-02-06T02:01:50.203Z,48.40
2023-02-06T02:04:23.028Z,51.25
2023-02-06T02:07:01.813Z,54.42
2023-02-06T02:09:32.080Z,61.53
2023-02-06T02:12:00.767Z,55.50
2023-02-06T02:14:29.557Z,50.20
2023-02-06T02:17:13.200Z,48.35
2023-02-06T02:20:26.500Z,46.30
2023-02-06T02:23:10.256Z,46.92
2023-02-06T02:26:36.431Z,43.85
2023-02-06T02:29:23.427Z,41.85
2023-02-06T02:32:23.101Z,47.75
2023-02-06T02:35:28.937Z,48.97
2023-02-06T02:38:05.430Z,52.15
2023-02-06T02:40:46.087Z,54.22
2023-02-06T02:43:24.221Z,53.92
2023-02-06T02:46:01.060Z,48.45
2023-02-06T02:48:34.160Z,45.35
2023-02-06T02:51:05.544Z,47.45
2023-02-06T02:53:34.180Z,48.35
2023-02-06T02:56:02.838Z,51.40
2023-02-06T02:58:36.167Z,43.63
2023-02-06T03:01:09.667Z,51.78
2023-02-06T03:03:42.340Z,44.30
2023-02-06T03:06:36.287Z,48.10
2023-02-06T03:09:13.740Z,46.38
2023-02-06T03:11:48.553Z,47.47
2023-02-06T03:14:24.967Z,50.13
2023-02-06T03:16:59.629Z,48.42
2023-02-06T03:19:33.550Z,47.38
2023-02-06T03:22:06.206Z,48.13
2023-02-06T03:24:38.930Z,47.10
2023-02-06T03:27:11.921Z,40.58
2023-02-06T03:29:41.991Z,40.30
2023-02-06T03:32:15.565Z,41.50
2023-02-06T03:34:49.709Z,43.58
2023-02-06T03:37:19.732Z,39.22
2023-02-06T03:39:48.382Z,37.95
2023-02-06T03:42:18.854Z,35.15
2023-02-06T03:44:51.902Z,37.22
2023-02-06T03:47:22.562Z,42.03
2023-02-06T03:49:52.904Z,44.33
2023-02-06T03:52:28.479Z,48.42
2023-02-06T03:55:05.775Z,47.15
2023-02-06T03:57:37.224Z,44.20
2023-02-06T04:00:06.694Z,43.80
2023-02-06T04:02:36.775Z,45.58
2023-02-06T04:05:05.766Z,44.53
2023-02-06T04:07:37.890Z,41.85
2023-02-06T04:10:07.275Z,46.67
2023-02-06T04:12:35.964Z,40.45
2023-02-06T04:15:04.749Z,43.53
2023-02-06T04:17:49.841Z,42.65
2023-02-06T04:20:22.222Z,44.20
2023-02-06T04:22:52.286Z,41.95
2023-02-06T04:25:20.744Z,40.70
2023-02-06T04:27:49.354Z,47.20
2023-02-06T04:30:18.705Z,40.75
2023-02-06T04:32:47.412Z,44.45
2023-02-06T04:35:15.782Z,37.88
2023-02-06T04:37:44.444Z,38.92
2023-02-06T04:40:14.889Z,43.42
2023-02-06T04:42:43.741Z,43.08
2023-02-06T04:45:12.480Z,43.50
2023-02-06T04:47:41.436Z,43.05
2023-02-06T04:50:10.799Z,39.30
2023-02-06T04:52:39.310Z,43.28
2023-02-06T04:55:09.099Z,39.08
2023-02-06T04:57:39.387Z,35.95
2023-02-06T05:00:09.740Z,40.47
2023-02-06T05:02:40.090Z,38.20
2023-02-06T05:05:10.563Z,45.47
2023-02-06T05:07:39.300Z,37.83
2023-02-06T05:10:09.323Z,39.50
2023-02-06T05:12:39.393Z,38.95
2023-02-06T05:15:09.071Z,38.50
2023-02-06T05:17:38.082Z,36.90
2023-02-06T05:20:07.929Z,32.58
2023-02-06T05:22:36.693Z,36.65
2023-02-06T05:25:05.383Z,38.17
2023-02-06T05:27:34.039Z,34.10
2023-02-06T05:30:04.100Z,38.05
2023-02-06T05:32:32.732Z,39.53
2023-02-06T05:35:01.253Z,37.90
2023-02-06T05:37:29.966Z,38.08
2023-02-06T05:40:00.000Z,36.15
2023-02-06T05:42:28.627Z,35.22
2023-02-06T05:44:57.172Z,36.83
2023-02-06T05:47:27.562Z,36.35
2023-02-06T05:49:56.292Z,38.10
2023-02-06T05:52:25.030Z,38.95
2023-02-06T05:54:53.568Z,38.08
2023-02-06T05:57:22.184Z,41.15
2023-02-06T05:59:51.267Z,38.10
2023-02-06T06:02:19.759Z,38.58
2023-02-06T06:04:50.180Z,31.73
2023-02-06T06:07:18.818Z,34.53
2023-02-06T06:09:47.183Z,36.38
2023-02-06T06:12:15.531Z,40.17
2023-02-06T06:14:44.078Z,32.58
2023-02-06T06:17:12.658Z,28.40
2023-02-06T06:19:41.360Z,29.75
2023-02-06T06:22:12.300Z,28.88
2023-02-06T06:24:41.030Z,31.20
2023-02-06T06:27:10.969Z,25.75
2023-02-06T06:29:39.786Z,24.30
2023-02-06T06:32:08.501Z,24.13
2023-02-06T06:34:37.098Z,24.30
2023-02-06T06:37:05.653Z,17.27
2023-02-06T06:39:35.999Z,17.38
2023-02-06T06:42:04.784Z,12.77
2023-02-06T06:44:33.262Z,15.43
2023-02-06T06:47:01.746Z,11.18
2023-02-06T06:49:30.646Z,13.27
2023-02-06T06:51:59.269Z,10.63
2023-02-06T06:54:27.840Z,11.52
2023-02-06T06:56:57.976Z,9.45
2023-02-06T06:59:26.359Z,8.18
2023-02-06T07:01:54.699Z,10.70
2023-02-06T07:04:23.336Z,9.77
2023-02-06T07:06:52.069Z,10.20
2023-02-06T07:09:20.621Z,8.30
2023-02-06T07:11:49.264Z,9.40
2023-02-06T07:14:19.451Z,7.22
2023-02-06T07:16:48.024Z,6.70
2023-02-06T07:19:16.957Z,10.07
2023-02-06T07:21:45.756Z,8.50
2023-02-06T07:24:14.442Z,9.43
2023-02-06T07:26:43.584Z,5.05
2023-02-06T07:29:12.259Z,8.23
2023-02-06T07:31:42.293Z,5.57
2023-02-06T07:34:10.961Z,4.55
2023-02-06T07:36:39.709Z,5.30
2023-02-06T07:39:09.828Z,6.53
2023-02-06T07:41:38.439Z,8.05
2023-02-06T07:44:07.440Z,6.28
2023-02-06T07:46:36.177Z,5.22
2023-02-06T07:49:06.158Z,5.80
2023-02-06T07:51:34.856Z,8.57
2023-02-06T07:54:03.618Z,5.13
2023-02-06T07:56:32.286Z,5.53
2023-02-06T07:59:00.857Z,5.22
2023-02-06T08:01:29.392Z,6.30
2023-02-06T08:03:58.356Z,4.28
2023-02-06T08:06:28.170Z,4.60
2023-02-06T08:08:58.409Z,4.00
2023-02-06T08:11:30.449Z,4.80
2023-02-06T08:13:59.440Z,5.10
2023-02-06T08:16:27.929Z,5.20
2023-02-06T08:18:56.354Z,5.63
2023-02-06T08:21:27.686Z,2.47
2023-02-06T08:23:57.215Z,3.63
2023-02-06T08:26:27.284Z,7.15
2023-02-06T08:28:57.528Z,7.40
2023-02-06T08:31:28.822Z,8.55
2023-02-06T08:33:57.955Z,8.98
2023-02-06T08:36:30.075Z,7.28
2023-02-06T08:38:58.663Z,12.73
2023-02-06T08:41:29.648Z,8.45
2023-02-06T08:44:00.053Z,8.45
2023-02-06T08:46:33.564Z,8.13
2023-02-06T08:49:04.140Z,9.48
2023-02-06T08:51:34.996Z,8.25
2023-02-06T08:54:06.417Z,7.93
2023-02-06T08:56:37.132Z,7.55
2023-02-06T08:59:07.580Z,6.65
2023-02-06T09:01:38.014Z,8.88
2023-02-06T09:04:09.398Z,6.80
2023-02-06T09:06:42.036Z,8.77
2023-02-06T09:09:12.078Z,6.93
2023-02-06T09:11:41.406Z,7.97
2023-02-06T09:14:14.444Z,5.43
2023-02-06T09:16:43.290Z,5.53
2023-02-06T09:19:12.674Z,6.28
2023-02-06T09:21:43.104Z,7.18
2023-02-06T09:24:11.731Z,5.50
2023-02-06T09:26:58.046Z,10.73
2023-02-06T09:29:29.319Z,9.93
2023-02-06T09:31:58.605Z,9.18
2023-02-06T09:34:27.647Z,6.18
2023-02-06T09:36:58.391Z,5.43
2023-02-06T09:39:27.548Z,7.53
2023-02-06T09:42:02.504Z,11.70
2023-02-06T09:44:34.656Z,7.80
2023-02-06T09:47:22.375Z,15.65
2023-02-06T09:49:54.339Z,7.10
2023-02-06T09:52:51.266Z,13.75
2023-02-06T09:55:27.788Z,8.75
2023-02-06T09:58:04.124Z,9.55
2023-02-06T10:00:44.411Z,8.88
2023-02-06T10:03:27.062Z,10.30
2023-02-06T10:06:06.105Z,8.40
2023-02-06T10:08:41.551Z,10.52
2023-02-06T10:11:15.912Z,15.75
2023-02-06T10:13:52.121Z,12.23
2023-02-06T10:16:37.075Z,12.30
2023-02-06T10:19:14.364Z,11.82
2023-02-06T10:21:50.239Z,11.57
2023-02-06T10:24:32.471Z,11.10
2023-02-06T10:27:05.473Z,11.77
2023-02-06T10:29:38.052Z,12.45
2023-02-06T10:32:22.418Z,13.15
2023-02-06T10:35:07.235Z,10.75
2023-02-06T10:38:09.790Z,7.68
2023-02-06T10:40:51.310Z,13.20
2023-02-06T10:43:30.259Z,12.10
2023-02-06T10:46:08.269Z,12.88
2023-02-06T10:48:41.746Z,12.00
2023-02-06T10:51:20.131Z,9.40
2023-02-06T10:53:54.598Z,10.00
2023-02-06T10:56:29.112Z,9.57
2023-02-06T10:59:00.330Z,10.23
2023-02-06T11:01:33.823Z,10.15
2023-02-06T11:04:11.585Z,10.95
2023-02-06T11:06:42.817Z,8.82
2023-02-06T11:09:12.499Z,6.28
2023-02-06T11:11:48.260Z,10.40
2023-02-06T11:14:22.709Z,12.60
2023-02-06T11:16:53.217Z,9.35
2023-02-06T11:19:27.362Z,10.98
2023-02-06T11:22:09.037Z,6.78
2023-02-06T11:24:38.511Z,10.30
2023-02-06T11:27:18.945Z,8.10
2023-02-06T11:29:52.218Z,7.43
2023-02-06T11:32:36.692Z,6.97
2023-02-06T11:35:09.632Z,8.88
2023-02-06T11:37:40.694Z,9.32
2023-02-06T11:40:23.917Z,11.52
2023-02-06T11:43:09.272Z,9.02
2023-02-06T11:45:38.305Z,6.88
2023-02-06T11:48:08.215Z,6.13
2023-02-06T11:50:39.096Z,8.93
2023-02-06T11:53:11.544Z,9.73
2023-02-06T11:55:42.952Z,6.70
2023-02-06T11:58:27.016Z,7.82
2023-02-06T12:01:02.976Z,10.38
2023-02-06T12:03:38.845Z,9.40
2023-02-06T12:06:14.501Z,10.05
2023-02-06T12:08:50.425Z,15.75
2023-02-06T12:11:25.229Z,8.95
2023-02-06T12:14:00.713Z,7.22
2023-02-06T12:16:40.339Z,7.80
2023-02-06T12:19:20.045Z,5.40
2023-02-06T12:21:54.069Z,7.28
2023-02-06T12:24:42.667Z,6.78
2023-02-06T12:27:22.381Z,11.75
2023-02-06T12:30:43.854Z,8.05
2023-02-06T12:36:41.176Z,10.98
2023-02-06T12:39:24.047Z,7.13
2023-02-06T12:45:58.767Z,6.55
2023-02-06T12:48:38.982Z,10.75
2023-02-06T12:51:15.449Z,10.05
2023-02-06T12:54:08.163Z,10.38
2023-02-06T12:56:43.125Z,8.50
2023-02-06T12:59:57.641Z,10.48
2023-02-06T13:02:51.882Z,9.93
2023-02-06T13:05:26.509Z,7.28
2023-02-06T13:07:58.857Z,7.25
2023-02-06T13:10:28.118Z,6.38
2023-02-06T13:12:58.833Z,6.07
2023-02-06T13:15:30.320Z,7.07
2023-02-06T13:18:00.422Z,7.20
2023-02-06T13:20:30.139Z,7.20
2023-02-06T13:23:25.353Z,7.93
2023-02-06T13:25:54.573Z,8.73
2023-02-06T13:28:59.908Z,10.90
2023-02-06T13:31:33.846Z,13.40
2023-02-06T13:34:12.285Z,9.25
2023-02-06T13:36:50.318Z,12.00
2023-02-06T13:39:32.574Z,9.48
2023-02-06T13:42:25.386Z,7.20
2023-02-06T13:44:55.534Z,8.55
2023-02-06T13:48:02.796Z,9.23
2023-02-06T13:50:49.643Z,11.95
2023-02-06T13:53:33.797Z,12.23
2023-02-06T13:56:33.024Z,6.20
2023-02-06T13:59:06.753Z,10.15
2023-02-06T14:01:37.238Z,9.63
2023-02-06T14:04:11.962Z,13.75
2023-02-06T14:06:52.892Z,11.30
2023-02-06T14:09:56.508Z,16.63
2023-02-06T14:12:39.538Z,12.60
2023-02-06T14:15:24.981Z,11.13
2023-02-06T14:18:21.082Z,11.32
2023-02-06T14:20:58.677Z,9.57
2023-02-06T14:23:59.372Z,13.05
2023-02-06T14:26:40.184Z,14.68
2023-02-06T14:29:24.766Z,16.98
2023-02-06T14:32:19.770Z,16.00
2023-02-06T14:35:04.440Z,11.57
2023-02-06T14:37:58.706Z,11.18
2023-02-06T14:40:54.453Z,12.20
2023-02-06T14:43:27.566Z,11.02
2023-02-06T14:46:08.399Z,11.77
2023-02-06T14:48:42.434Z,15.15
2023-02-06T14:51:22.438Z,14.65
2023-02-06T14:54:07.200Z,13.90
2023-02-06T14:56:45.805Z,14.52
2023-02-06T14:59:19.686Z,17.67
2023-02-06T15:01:57.684Z,14.85
2023-02-06T15:04:32.653Z,15.98
2023-02-06T15:07:04.270Z,17.17
2023-02-06T15:09:35.874Z,17.05
2023-02-06T15:12:22.847Z,14.45
2023-02-06T15:14:55.194Z,15.70
2023-02-06T15:17:28.424Z,13.18
2023-02-06T15:19:57.160Z,18.20
2023-02-06T15:22:30.749Z,19.60
2023-02-06T15:25:11.902Z,14.77
2023-02-06T15:27:42.122Z,15.15
2023-02-06T15:30:22.418Z,14.90
2023-02-06T15:32:53.959Z,17.33
2023-02-06T15:35:26.444Z,15.02
2023-02-06T15:37:56.844Z,13.93
2023-02-06T15:40:31.140Z,20.13
2023-02-06T15:43:03.443Z,16.13
2023-02-06T15:45:36.205Z,15.23
2023-02-06T15:48:14.184Z,16.52
2023-02-06T15:50:42.628Z,14.88
2023-02-06T15:53:22.030Z,12.95
2023-02-06T15:55:56.710Z,13.93
2023-02-06T15:58:31.086Z,11.95
2023-02-06T16:01:00.478Z,13.35
2023-02-06T16:03:32.111Z,13.25
2023-02-06T16:06:02.072Z,12.48
2023-02-06T16:08:35.284Z,12.75
2023-02-06T16:11:29.204Z,13.82
2023-02-06T16:14:00.572Z,16.90
2023-02-06T16:16:30.235Z,16.35
2023-02-06T16:18:59.830Z,13.57
2023-02-06T16:21:31.224Z,12.88
2023-02-06T16:24:18.086Z,18.00
2023-02-06T16:26:49.135Z,10.75
2023-02-06T16:29:27.276Z,12.93
2023-02-06T16:32:01.231Z,13.25
2023-02-06T16:34:37.102Z,16.80
2023-02-06T16:37:11.006Z,13.65
2023-02-06T16:39:41.116Z,10.60
2023-02-06T16:42:14.366Z,11.52
2023-02-06T16:44:48.157Z,15.38
2023-02-06T16:47:20.436Z,14.75
2023-02-06T16:49:50.273Z,16.48
2023-02-06T16:52:23.312Z,15.18
2023-02-06T16:54:52.071Z,10.13
2023-02-06T16:57:27.444Z,13.43
2023-02-06T16:59:58.021Z,12.65
2023-02-06T17:02:28.401Z,14.15
2023-02-06T17:04:57.075Z,14.95
2023-02-06T17:07:29.169Z,13.75
2023-02-06T17:10:00.247Z,12.13
2023-02-06T17:12:29.977Z,16.35
2023-02-06T17:15:00.376Z,16.27
2023-02-06T17:17:29.266Z,15.70
2023-02-06T17:19:58.108Z,12.20
2023-02-06T17:22:26.960Z,16.17
2023-02-06T17:24:55.483Z,20.08
2023-02-06T17:27:24.744Z,16.50
2023-02-06T17:29:54.510Z,17.05
2023-02-06T17:32:24.515Z,14.45
2023-02-06T17:34:54.567Z,20.20
2023-02-06T17:37:24.289Z,19.20
2023-02-06T17:39:54.141Z,21.38
2023-02-06T17:42:24.554Z,19.55
2023-02-06T17:44:53.121Z,26.23
2023-02-06T17:47:23.890Z,23.92
2023-02-06T17:49:54.391Z,13.25
2023-02-06T17:52:23.067Z,20.73
2023-02-06T17:54:51.746Z,13.68
2023-02-06T17:57:20.398Z,22.90
2023-02-06T17:59:49.003Z,19.60
2023-02-06T18:02:17.299Z,19.70
2023-02-06T18:04:48.860Z,19.30
2023-02-06T18:07:18.695Z,22.00
2023-02-06T18:09:47.461Z,23.08
2023-02-06T18:12:17.028Z,24.33
2023-02-06T18:14:48.167Z,17.00
2023-02-06T18:17:16.847Z,24.25
2023-02-06T18:19:47.111Z,20.80
2023-02-06T18:22:19.399Z,24.00
2023-02-06T18:24:50.832Z,21.67
2023-02-06T18:27:21.613Z,24.63
2023-02-06T18:29:55.681Z,28.52
2023-02-06T18:32:24.226Z,31.77
2023-02-06T18:34:52.866Z,27.55
2023-02-06T18:37:21.469Z,24.77
2023-02-06T18:39:51.420Z,34.10
2023-02-06T18:42:37.704Z,22.60
2023-02-06T18:45:06.852Z,28.55
2023-02-06T18:47:35.408Z,15.68
2023-02-06T18:50:04.222Z,29.17
2023-02-06T18:52:32.658Z,31.30
2023-02-06T18:55:02.674Z,23.83
2023-02-06T18:57:31.289Z,30.85
2023-02-06T19:00:00.359Z,24.45
2023-02-06T19:02:29.371Z,18.83
2023-02-06T19:04:59.694Z,27.95
2023-02-06T19:07:28.850Z,28.15
2023-02-06T19:09:59.389Z,24.88
2023-02-06T19:12:30.804Z,27.52
2023-02-06T19:15:01.080Z,26.10
2023-02-06T19:17:30.089Z,28.15
2023-02-06T19:19:58.680Z,24.10
2023-02-06T19:22:27.331Z,25.13
2023-02-06T19:24:57.408Z,25.40
2023-02-06T19:27:26.342Z,20.42
2023-02-06T19:29:56.438Z,25.15
2023-02-06T19:32:26.549Z,23.48
2023-02-06T19:34:55.003Z,22.08
2023-02-06T19:37:23.554Z,20.92
2023-02-06T19:39:52.113Z,24.70
2023-02-06T19:42:20.648Z,25.52
2023-02-06T19:44:55.085Z,25.77
2023-02-06T19:47:25.323Z,16.15
2023-02-06T19:49:54.351Z,22.67
2023-02-06T19:52:22.748Z,28.75
2023-02-06T19:54:51.581Z,29.45
2023-02-06T19:57:19.984Z,21.67
2023-02-06T19:59:48.654Z,31.67
2023-02-06T20:02:17.905Z,34.28
2023-02-06T20:04:47.765Z,36.95
2023-02-06T20:07:16.304Z,27.58
2023-02-06T20:09:44.623Z,40.63
2023-02-06T20:12:13.998Z,28.55
2023-02-06T20:14:42.632Z,29.45
2023-02-06T20:17:11.237Z,30.25
2023-02-06T20:19:39.864Z,30.35
2023-02-06T20:22:10.398Z,30.85
2023-02-06T20:24:39.302Z,28.98
2023-02-06T20:27:09.008Z,29.90
2023-02-06T20:29:40.035Z,29.08
2023-02-06T20:32:09.170Z,37.22
2023-02-06T20:34:38.347Z,31.88
2023-02-06T20:37:07.108Z,23.23
2023-02-06T20:39:36.859Z,32.75
2023-02-06T20:42:05.900Z,27.02
2023-02-06T20:44:34.380Z,30.48
2023-02-06T20:47:03.151Z,36.35
2023-02-06T20:49:32.628Z,28.85
2023-02-06T20:52:01.792Z,33.80
2023-02-06T20:54:31.140Z,33.35
2023-02-06T20:57:01.707Z,19.92
2023-02-06T20:59:31.402Z,29.77
2023-02-06T21:01:59.979Z,24.67
2023-02-06T21:04:29.224Z,33.67
2023-02-06T21:06:57.920Z,26.30
2023-02-06T21:09:26.802Z,31.45
2023-02-06T21:11:55.871Z,29.55
2023-02-06T21:14:28.324Z,27.65
2023-02-06T21:16:56.824Z,27.92
2023-02-06T21:19:28.378Z,18.70
2023-02-06T21:21:57.196Z,17.73
2023-02-06T21:24:25.592Z,17.77
2023-02-06T21:26:54.133Z,19.80
2023-02-06T21:29:23.351Z,15.65
2023-02-06T21:32:07.213Z,17.50
2023-02-06T21:34:41.296Z,17.80
2023-02-06T21:37:09.706Z,17.30
2023-02-06T21:39:39.005Z,23.10
2023-02-06T21:42:07.739Z,21.23
2023-02-06T21:44:37.559Z,15.07
2023-02-06T21:47:10.403Z,12.90
2023-02-06T21:49:39.333Z,18.80
2023-02-06T21:52:07.922Z,15.32
2023-02-06T21:54:36.469Z,16.00
2023-02-06T21:57:05.241Z,21.20
2023-02-06T21:59:34.379Z,20.50
2023-02-06T22:02:02.915Z,22.58
2023-02-06T22:04:33.239Z,18.58
2023-02-06T22:07:01.876Z,15.52
2023-02-06T22:09:30.621Z,16.65
2023-02-06T22:12:00.306Z,18.23
2023-02-06T22:14:29.106Z,19.13
2023-02-06T22:16:57.598Z,15.02
2023-02-06T22:19:28.126Z,20.38
2023-02-06T22:21:58.228Z,18.35
2023-02-06T22:24:29.994Z,20.00
2023-02-06T22:26:59.941Z,14.98
2023-02-06T22:29:30.256Z,12.27
2023-02-06T22:31:58.954Z,12.27
2023-02-06T22:34:27.742Z,12.20
2023-02-06T22:36:58.113Z,20.58
2023-02-06T22:39:27.144Z,9.82
2023-02-06T22:41:55.937Z,17.83
2023-02-06T22:44:25.558Z,14.00
2023-02-06T22:46:54.597Z,16.30
2023-02-06T22:49:24.790Z,12.27
2023-02-06T22:51:53.590Z,19.30
2023-02-06T22:54:23.823Z,16.65
2023-02-06T22:56:52.465Z,17.40
2023-02-06T22:59:23.848Z,18.00
2023-02-06T23:01:58.292Z,19.02
2023-02-06T23:04:28.903Z,14.77
2023-02-06T23:06:57.717Z,19.88
2023-02-06T23:09:30.574Z,9.40
2023-02-06T23:11:59.876Z,15.52
2023-02-06T23:14:30.882Z,11.57
2023-02-06T23:17:01.765Z,20.90
2023-02-06T23:19:31.086Z,14.95
2023-02-06T23:21:59.854Z,20.08
2023-02-06T23:24:30.008Z,15.65
2023-02-06T23:26:59.440Z,12.00
2023-02-06T23:29:27.970Z,15.32
2023-02-06T23:31:57.039Z,15.18
2023-02-06T23:34:25.862Z,20.10
2023-02-06T23:36:54.917Z,18.20
2023-02-06T23:39:24.085Z,15.43
2023-02-06T23:41:54.282Z,17.50
2023-02-06T23:44:24.187Z,16.83
2023-02-06T23:46:52.799Z,11.20
2023-02-06T23:49:23.034Z,13.00
2023-02-06T23:51:52.064Z,17.02
2023-02-06T23:54:20.622Z,18.60
2023-02-06T23:56:49.105Z,17.13
2023-02-06T23:59:19.621Z,11.90
